sensor_id;sensor_type;location;lat;lon;timestamp;P1;durP1;ratioP1;P2;durP2;ratioP2
20462;SDS011;10390;53.566;9.980;2022-08-19T00:00:20;8.65;;;7.80;;
20462;SDS011;10390;53.566;9.980;2022-08-19T00:02:46;8.52;;;7.70;;
20462;SDS011;10390;53.566;9.980;2022-08-19T00:05:12;9.70;;;7.95;;
20462;SDS011;10390;53.566;9.980;2022-08-19T00:07:40;9.07;;;8.18;;
20462;SDS011;10390;53.566;9.980;2022-08-19T00:10:08;9.70;;;8.25;;
20462;SDS011;10390;53.566;9.980;2022-08-19T00:12:35;9.93;;;8.18;;
20462;SDS011;10390;53.566;9.980;2022-08-19T00:15:07;9.82;;;7.85;;
20462;SDS011;10390;53.566;9.980;2022-08-19T00:17:39;10.77;;;8.95;;
20462;SDS011;10390;53.566;9.980;2022-08-19T00:20:08;9.90;;;8.07;;
20462;SDS011;10390;53.566;9.980;2022-08-19T00:22:37;9.10;;;8.20;;
20462;SDS011;10390;53.566;9.980;2022-08-19T00:25:06;10.00;;;8.18;;
20462;SDS011;10390;53.566;9.980;2022-08-19T00:27:33;9.00;;;8.10;;
20462;SDS011;10390;53.566;9.980;2022-08-19T00:29:59;9.40;;;8.50;;
20462;SDS011;10390;53.566;9.980;2022-08-19T00:32:28;11.30;;;9.82;;
20462;SDS011;10390;53.566;9.980;2022-08-19T00:34:54;11.38;;;10.05;;
20462;SDS011;10390;53.566;9.980;2022-08-19T00:37:23;13.75;;;11.38;;
20462;SDS011;10390;53.566;9.980;2022-08-19T00:39:51;14.20;;;12.80;;
20462;SDS011;10390;53.566;9.980;2022-08-19T00:42:18;13.73;;;12.15;;
20462;SDS011;10390;53.566;9.980;2022-08-19T00:44:45;13.35;;;12.02;;
20462;SDS011;10390;53.566;9.980;2022-08-19T00:47:12;14.60;;;13.13;;
20462;SDS011;10390;53.566;9.980;2022-08-19T00:49:42;13.88;;;12.35;;
20462;SDS011;10390;53.566;9.980;2022-08-19T00:52:30;15.02;;;12.52;;
20462;SDS011;10390;53.566;9.980;2022-08-19T00:55:00;14.02;;;12.52;;
20462;SDS011;10390;53.566;9.980;2022-08-19T00:57:32;17.20;;;14.57;;
20462;SDS011;10390;53.566;9.980;2022-08-19T01:00:19;16.73;;;13.75;;
20462;SDS011;10390;53.566;9.980;2022-08-19T01:02:47;18.77;;;15.35;;
20462;SDS011;10390;53.566;9.980;2022-08-19T01:05:17;16.23;;;13.95;;
20462;SDS011;10390;53.566;9.980;2022-08-19T01:07:48;18.63;;;15.18;;
20462;SDS011;10390;53.566;9.980;2022-08-19T01:10:17;19.17;;;17.13;;
20462;SDS011;10390;53.566;9.980;2022-08-19T01:12:48;18.88;;;16.73;;
20462;SDS011;10390;53.566;9.980;2022-08-19T01:15:17;18.83;;;15.02;;
20462;SDS011;10390;53.566;9.980;2022-08-19T01:17:48;18.10;;;15.38;;
20462;SDS011;10390;53.566;9.980;2022-08-19T01:20:17;17.80;;;15.38;;
20462;SDS011;10390;53.566;9.980;2022-08-19T01:22:51;19.60;;;15.95;;
20462;SDS011;10390;53.566;9.980;2022-08-19T01:25:22;19.17;;;15.63;;
20462;SDS011;10390;53.566;9.980;2022-08-19T01:28:24;16.02;;;14.00;;
20462;SDS011;10390;53.566;9.980;2022-08-19T01:30:52;15.93;;;13.48;;
20462;SDS011;10390;53.566;9.980;2022-08-19T01:33:19;15.63;;;13.45;;
20462;SDS011;10390;53.566;9.980;2022-08-19T01:35:46;15.07;;;13.48;;
20462;SDS011;10390;53.566;9.980;2022-08-19T01:38:23;16.25;;;13.43;;
20462;SDS011;10390;53.566;9.980;2022-08-19T01:40:52;14.20;;;12.70;;
20462;SDS011;10390;53.566;9.980;2022-08-19T01:43:18;15.23;;;12.73;;
20462;SDS011;10390;53.566;9.980;2022-08-19T01:45:44;13.55;;;12.15;;
20462;SDS011;10390;53.566;9.980;2022-08-19T01:48:11;14.73;;;11.85;;
20462;SDS011;10390;53.566;9.980;2022-08-19T01:50:37;15.77;;;13.27;;
20462;SDS011;10390;53.566;9.980;2022-08-19T01:53:06;13.30;;;11.90;;
20462;SDS011;10390;53.566;9.980;2022-08-19T01:55:36;15.10;;;12.55;;
20462;SDS011;10390;53.566;9.980;2022-08-19T01:58:05;14.75;;;12.05;;
20462;SDS011;10390;53.566;9.980;2022-08-19T02:00:39;15.95;;;12.68;;
20462;SDS011;10390;53.566;9.980;2022-08-19T02:03:05;15.73;;;12.77;;
20462;SDS011;10390;53.566;9.980;2022-08-19T02:05:31;16.48;;;13.48;;
20462;SDS011;10390;53.566;9.980;2022-08-19T02:07:57;16.38;;;13.55;;
20462;SDS011;10390;53.566;9.980;2022-08-19T02:10:24;17.27;;;12.93;;
20462;SDS011;10390;53.566;9.980;2022-08-19T02:12:50;16.83;;;12.63;;
20462;SDS011;10390;53.566;9.980;2022-08-19T02:15:16;14.43;;;12.07;;
20462;SDS011;10390;53.566;9.980;2022-08-19T02:17:44;16.45;;;12.30;;
20462;SDS011;10390;53.566;9.980;2022-08-19T02:20:10;15.90;;;11.68;;
20462;SDS011;10390;53.566;9.980;2022-08-19T02:22:38;15.82;;;12.88;;
20462;SDS011;10390;53.566;9.980;2022-08-19T02:25:09;14.93;;;12.15;;
20462;SDS011;10390;53.566;9.980;2022-08-19T02:27:37;18.20;;;13.52;;
20462;SDS011;10390;53.566;9.980;2022-08-19T02:30:05;15.85;;;12.98;;
20462;SDS011;10390;53.566;9.980;2022-08-19T02:32:34;19.02;;;12.63;;
20462;SDS011;10390;53.566;9.980;2022-08-19T02:35:00;16.33;;;12.98;;
20462;SDS011;10390;53.566;9.980;2022-08-19T02:37:26;16.13;;;12.75;;
20462;SDS011;10390;53.566;9.980;2022-08-19T02:40:11;14.65;;;11.93;;
20462;SDS011;10390;53.566;9.980;2022-08-19T02:42:37;15.70;;;11.02;;
20462;SDS011;10390;53.566;9.980;2022-08-19T02:45:03;15.15;;;12.07;;
20462;SDS011;10390;53.566;9.980;2022-08-19T02:47:30;15.45;;;11.70;;
20462;SDS011;10390;53.566;9.980;2022-08-19T02:49:56;15.35;;;11.88;;
20462;SDS011;10390;53.566;9.980;2022-08-19T02:52:22;16.70;;;12.73;;
20462;SDS011;10390;53.566;9.980;2022-08-19T02:54:48;18.27;;;12.80;;
20462;SDS011;10390;53.566;9.980;2022-08-19T02:57:14;18.15;;;13.85;;
20462;SDS011;10390;53.566;9.980;2022-08-19T02:59:40;19.77;;;13.77;;
20462;SDS011;10390;53.566;9.980;2022-08-19T03:02:06;19.73;;;14.00;;
20462;SDS011;10390;53.566;9.980;2022-08-19T03:04:31;20.92;;;14.77;;
20462;SDS011;10390;53.566;9.980;2022-08-19T03:06:57;20.13;;;14.30;;
20462;SDS011;10390;53.566;9.980;2022-08-19T03:09:23;22.10;;;14.75;;
20462;SDS011;10390;53.566;9.980;2022-08-19T03:11:49;22.92;;;15.00;;
20462;SDS011;10390;53.566;9.980;2022-08-19T03:14:15;22.80;;;16.02;;
20462;SDS011;10390;53.566;9.980;2022-08-19T03:16:43;27.38;;;15.82;;
20462;SDS011;10390;53.566;9.980;2022-08-19T03:19:16;23.55;;;16.20;;
20462;SDS011;10390;53.566;9.980;2022-08-19T03:21:44;24.58;;;16.58;;
20462;SDS011;10390;53.566;9.980;2022-08-19T03:24:11;22.63;;;15.45;;
20462;SDS011;10390;53.566;9.980;2022-08-19T03:26:39;25.00;;;16.60;;
20462;SDS011;10390;53.566;9.980;2022-08-19T03:29:07;29.05;;;17.25;;
20462;SDS011;10390;53.566;9.980;2022-08-19T03:31:36;25.80;;;16.67;;
20462;SDS011;10390;53.566;9.980;2022-08-19T03:34:04;24.13;;;16.10;;
20462;SDS011;10390;53.566;9.980;2022-08-19T03:36:30;22.40;;;16.13;;
20462;SDS011;10390;53.566;9.980;2022-08-19T03:38:57;25.10;;;16.85;;
20462;SDS011;10390;53.566;9.980;2022-08-19T03:41:27;24.30;;;16.15;;
20462;SDS011;10390;53.566;9.980;2022-08-19T03:43:56;24.95;;;15.95;;
20462;SDS011;10390;53.566;9.980;2022-08-19T03:46:24;23.85;;;15.55;;
20462;SDS011;10390;53.566;9.980;2022-08-19T03:48:53;21.17;;;15.25;;
20462;SDS011;10390;53.566;9.980;2022-08-19T03:51:23;21.92;;;14.95;;
20462;SDS011;10390;53.566;9.980;2022-08-19T03:53:56;22.08;;;14.75;;
20462;SDS011;10390;53.566;9.980;2022-08-19T03:56:24;21.52;;;14.98;;
20462;SDS011;10390;53.566;9.980;2022-08-19T03:58:52;20.33;;;14.75;;
20462;SDS011;10390;53.566;9.980;2022-08-19T04:01:20;23.15;;;14.63;;
20462;SDS011;10390;53.566;9.980;2022-08-19T04:03:51;21.67;;;14.93;;
20462;SDS011;10390;53.566;9.980;2022-08-19T04:06:19;20.08;;;13.57;;
20462;SDS011;10390;53.566;9.980;2022-08-19T04:08:49;18.38;;;14.43;;
20462;SDS011;10390;53.566;9.980;2022-08-19T04:11:19;24.55;;;14.45;;
20462;SDS011;10390;53.566;9.980;2022-08-19T04:13:49;24.30;;;15.02;;
20462;SDS011;10390;53.566;9.980;2022-08-19T04:16:17;24.40;;;14.73;;
20462;SDS011;10390;53.566;9.980;2022-08-19T04:18:45;20.88;;;14.15;;
20462;SDS011;10390;53.566;9.980;2022-08-19T04:21:20;23.08;;;15.18;;
20462;SDS011;10390;53.566;9.980;2022-08-19T04:23:49;24.67;;;14.55;;
20462;SDS011;10390;53.566;9.980;2022-08-19T04:26:23;23.08;;;15.70;;
20462;SDS011;10390;53.566;9.980;2022-08-19T04:28:52;22.75;;;15.98;;
20462;SDS011;10390;53.566;9.980;2022-08-19T04:31:20;21.75;;;15.73;;
20462;SDS011;10390;53.566;9.980;2022-08-19T04:33:52;24.63;;;16.30;;
20462;SDS011;10390;53.566;9.980;2022-08-19T04:36:24;24.25;;;15.93;;
20462;SDS011;10390;53.566;9.980;2022-08-19T04:38:54;23.42;;;15.48;;
20462;SDS011;10390;53.566;9.980;2022-08-19T04:41:26;25.40;;;15.45;;
20462;SDS011;10390;53.566;9.980;2022-08-19T04:44:11;21.55;;;15.40;;
20462;SDS011;10390;53.566;9.980;2022-08-19T04:46:38;25.45;;;15.70;;
20462;SDS011;10390;53.566;9.980;2022-08-19T04:49:05;22.20;;;15.77;;
20462;SDS011;10390;53.566;9.980;2022-08-19T04:51:33;22.02;;;15.00;;
20462;SDS011;10390;53.566;9.980;2022-08-19T04:54:04;25.00;;;15.88;;
20462;SDS011;10390;53.566;9.980;2022-08-19T04:56:30;23.08;;;16.00;;
20462;SDS011;10390;53.566;9.980;2022-08-19T04:58:56;24.52;;;15.85;;
20462;SDS011;10390;53.566;9.980;2022-08-19T05:01:24;21.35;;;15.32;;
20462;SDS011;10390;53.566;9.980;2022-08-19T05:03:53;20.67;;;15.70;;
20462;SDS011;10390;53.566;9.980;2022-08-19T05:06:21;18.60;;;14.25;;
20462;SDS011;10390;53.566;9.980;2022-08-19T05:08:48;17.02;;;13.85;;
20462;SDS011;10390;53.566;9.980;2022-08-19T05:11:17;16.60;;;13.50;;
20462;SDS011;10390;53.566;9.980;2022-08-19T05:13:50;15.02;;;12.43;;
20462;SDS011;10390;53.566;9.980;2022-08-19T05:16:18;17.60;;;12.07;;
20462;SDS011;10390;53.566;9.980;2022-08-19T05:18:45;18.55;;;12.95;;
20462;SDS011;10390;53.566;9.980;2022-08-19T05:21:30;16.42;;;11.10;;
20462;SDS011;10390;53.566;9.980;2022-08-19T05:24:15;16.35;;;11.10;;
20462;SDS011;10390;53.566;9.980;2022-08-19T05:26:44;14.77;;;11.57;;
20462;SDS011;10390;53.566;9.980;2022-08-19T05:29:14;13.40;;;10.52;;
20462;SDS011;10390;53.566;9.980;2022-08-19T05:31:44;11.48;;;9.98;;
20462;SDS011;10390;53.566;9.980;2022-08-19T05:34:10;12.93;;;9.90;;
20462;SDS011;10390;53.566;9.980;2022-08-19T05:36:41;13.30;;;9.57;;
20462;SDS011;10390;53.566;9.980;2022-08-19T05:39:11;11.60;;;8.73;;
20462;SDS011;10390;53.566;9.980;2022-08-19T05:41:48;13.35;;;8.93;;
20462;SDS011;10390;53.566;9.980;2022-08-19T05:44:18;12.05;;;8.65;;
20462;SDS011;10390;53.566;9.980;2022-08-19T05:46:46;11.98;;;8.52;;
20462;SDS011;10390;53.566;9.980;2022-08-19T05:49:13;13.93;;;8.68;;
20462;SDS011;10390;53.566;9.980;2022-08-19T05:51:41;10.63;;;8.60;;
20462;SDS011;10390;53.566;9.980;2022-08-19T05:54:08;9.73;;;8.02;;
20462;SDS011;10390;53.566;9.980;2022-08-19T05:56:36;11.38;;;8.85;;
20462;SDS011;10390;53.566;9.980;2022-08-19T05:59:03;8.65;;;7.22;;
20462;SDS011;10390;53.566;9.980;2022-08-19T06:01:36;9.43;;;8.27;;
20462;SDS011;10390;53.566;9.980;2022-08-19T06:04:05;11.80;;;8.02;;
20462;SDS011;10390;53.566;9.980;2022-08-19T06:06:31;10.00;;;8.50;;
20462;SDS011;10390;53.566;9.980;2022-08-19T06:09:02;9.52;;;7.80;;
20462;SDS011;10390;53.566;9.980;2022-08-19T06:11:38;11.18;;;7.82;;
20462;SDS011;10390;53.566;9.980;2022-08-19T06:14:05;12.45;;;8.40;;
20462;SDS011;10390;53.566;9.980;2022-08-19T06:16:36;10.73;;;7.53;;
20462;SDS011;10390;53.566;9.980;2022-08-19T06:19:05;14.13;;;9.05;;
20462;SDS011;10390;53.566;9.980;2022-08-19T06:21:34;14.43;;;9.75;;
20462;SDS011;10390;53.566;9.980;2022-08-19T06:24:03;13.95;;;9.82;;
20462;SDS011;10390;53.566;9.980;2022-08-19T06:26:32;13.80;;;8.48;;
20462;SDS011;10390;53.566;9.980;2022-08-19T06:29:00;13.43;;;10.07;;
20462;SDS011;10390;53.566;9.980;2022-08-19T06:31:29;14.07;;;9.00;;
20462;SDS011;10390;53.566;9.980;2022-08-19T06:33:58;13.32;;;9.50;;
20462;SDS011;10390;53.566;9.980;2022-08-19T06:36:35;17.77;;;10.70;;
20462;SDS011;10390;53.566;9.980;2022-08-19T06:39:09;15.50;;;10.50;;
20462;SDS011;10390;53.566;9.980;2022-08-19T06:41:39;18.17;;;11.90;;
20462;SDS011;10390;53.566;9.980;2022-08-19T06:44:09;17.17;;;11.10;;
20462;SDS011;10390;53.566;9.980;2022-08-19T06:46:37;17.25;;;11.30;;
20462;SDS011;10390;53.566;9.980;2022-08-19T06:49:04;15.68;;;10.57;;
20462;SDS011;10390;53.566;9.980;2022-08-19T06:51:34;21.15;;;11.55;;
20462;SDS011;10390;53.566;9.980;2022-08-19T06:54:00;17.52;;;12.13;;
20462;SDS011;10390;53.566;9.980;2022-08-19T06:56:28;20.58;;;12.48;;
20462;SDS011;10390;53.566;9.980;2022-08-19T06:58:59;16.80;;;10.85;;
20462;SDS011;10390;53.566;9.980;2022-08-19T07:01:27;17.90;;;10.80;;
20462;SDS011;10390;53.566;9.980;2022-08-19T07:03:53;17.73;;;10.85;;
20462;SDS011;10390;53.566;9.980;2022-08-19T07:06:19;13.70;;;9.57;;
20462;SDS011;10390;53.566;9.980;2022-08-19T07:08:46;14.40;;;9.65;;
20462;SDS011;10390;53.566;9.980;2022-08-19T07:11:14;14.23;;;10.20;;
20462;SDS011;10390;53.566;9.980;2022-08-19T07:13:43;15.40;;;10.52;;
20462;SDS011;10390;53.566;9.980;2022-08-19T07:16:14;13.80;;;10.70;;
20462;SDS011;10390;53.566;9.980;2022-08-19T07:18:44;17.80;;;10.65;;
20462;SDS011;10390;53.566;9.980;2022-08-19T07:21:21;16.38;;;11.98;;
20462;SDS011;10390;53.566;9.980;2022-08-19T07:23:54;14.50;;;10.40;;
20462;SDS011;10390;53.566;9.980;2022-08-19T07:26:26;16.88;;;10.88;;
20462;SDS011;10390;53.566;9.980;2022-08-19T07:28:56;13.27;;;10.73;;
20462;SDS011;10390;53.566;9.980;2022-08-19T07:31:25;17.10;;;11.57;;
20462;SDS011;10390;53.566;9.980;2022-08-19T07:33:53;12.80;;;9.30;;
20462;SDS011;10390;53.566;9.980;2022-08-19T07:36:23;14.25;;;10.10;;
20462;SDS011;10390;53.566;9.980;2022-08-19T07:38:56;12.82;;;10.05;;
20462;SDS011;10390;53.566;9.980;2022-08-19T07:41:23;11.45;;;9.80;;
20462;SDS011;10390;53.566;9.980;2022-08-19T07:43:51;13.10;;;8.90;;
20462;SDS011;10390;53.566;9.980;2022-08-19T07:46:18;15.45;;;10.25;;
20462;SDS011;10390;53.566;9.980;2022-08-19T07:48:45;13.30;;;10.60;;
20462;SDS011;10390;53.566;9.980;2022-08-19T07:51:16;11.77;;;9.70;;
20462;SDS011;10390;53.566;9.980;2022-08-19T07:53:45;12.73;;;8.90;;
20462;SDS011;10390;53.566;9.980;2022-08-19T07:56:12;12.48;;;9.40;;
20462;SDS011;10390;53.566;9.980;2022-08-19T07:58:39;11.88;;;9.40;;
20462;SDS011;10390;53.566;9.980;2022-08-19T08:01:12;12.23;;;9.07;;
20462;SDS011;10390;53.566;9.980;2022-08-19T08:03:45;11.13;;;8.75;;
20462;SDS011;10390;53.566;9.980;2022-08-19T08:06:30;10.05;;;7.80;;
20462;SDS011;10390;53.566;9.980;2022-08-19T08:09:20;10.40;;;8.18;;
20462;SDS011;10390;53.566;9.980;2022-08-19T08:12:04;7.85;;;6.93;;
20462;SDS011;10390;53.566;9.980;2022-08-19T08:14:47;10.45;;;7.53;;
20462;SDS011;10390;53.566;9.980;2022-08-19T08:17:18;8.82;;;7.13;;
20462;SDS011;10390;53.566;9.980;2022-08-19T08:19:46;9.75;;;7.47;;
20462;SDS011;10390;53.566;9.980;2022-08-19T08:22:16;11.13;;;7.55;;
20462;SDS011;10390;53.566;9.980;2022-08-19T08:25:05;14.10;;;7.78;;
20462;SDS011;10390;53.566;9.980;2022-08-19T08:27:38;10.65;;;7.63;;
20462;SDS011;10390;53.566;9.980;2022-08-19T08:30:13;11.40;;;7.72;;
20462;SDS011;10390;53.566;9.980;2022-08-19T08:32:45;11.88;;;8.30;;
20462;SDS011;10390;53.566;9.980;2022-08-19T08:35:13;14.07;;;8.07;;
20462;SDS011;10390;53.566;9.980;2022-08-19T08:37:42;12.30;;;8.02;;
20462;SDS011;10390;53.566;9.980;2022-08-19T08:43:28;8.88;;;6.55;;
20462;SDS011;10390;53.566;9.980;2022-08-19T08:46:12;10.50;;;7.80;;
20462;SDS011;10390;53.566;9.980;2022-08-19T08:48:49;12.63;;;8.77;;
20462;SDS011;10390;53.566;9.980;2022-08-19T08:51:31;9.10;;;7.55;;
20462;SDS011;10390;53.566;9.980;2022-08-19T08:54:10;11.25;;;7.93;;
20462;SDS011;10390;53.566;9.980;2022-08-19T08:56:39;11.45;;;7.38;;
20462;SDS011;10390;53.566;9.980;2022-08-19T08:59:26;11.60;;;8.07;;
20462;SDS011;10390;53.566;9.980;2022-08-19T09:01:59;11.75;;;8.15;;
20462;SDS011;10390;53.566;9.980;2022-08-19T09:04:26;12.30;;;8.50;;
20462;SDS011;10390;53.566;9.980;2022-08-19T09:09:35;11.68;;;8.75;;
20462;SDS011;10390;53.566;9.980;2022-08-19T09:12:14;13.02;;;8.90;;
20462;SDS011;10390;53.566;9.980;2022-08-19T09:15:15;12.52;;;9.32;;
20462;SDS011;10390;53.566;9.980;2022-08-19T09:18:10;13.73;;;9.48;;
20462;SDS011;10390;53.566;9.980;2022-08-19T09:20:37;13.55;;;9.07;;
20462;SDS011;10390;53.566;9.980;2022-08-19T09:23:03;13.05;;;9.18;;
20462;SDS011;10390;53.566;9.980;2022-08-19T09:25:29;12.27;;;10.07;;
20462;SDS011;10390;53.566;9.980;2022-08-19T09:27:57;13.98;;;9.35;;
20462;SDS011;10390;53.566;9.980;2022-08-19T09:30:29;12.38;;;9.15;;
20462;SDS011;10390;53.566;9.980;2022-08-19T09:33:04;12.38;;;8.55;;
20462;SDS011;10390;53.566;9.980;2022-08-19T09:35:31;15.02;;;9.55;;
20462;SDS011;10390;53.566;9.980;2022-08-19T09:37:58;15.32;;;9.18;;
20462;SDS011;10390;53.566;9.980;2022-08-19T09:40:26;13.02;;;9.13;;
20462;SDS011;10390;53.566;9.980;2022-08-19T09:42:53;13.15;;;9.60;;
20462;SDS011;10390;53.566;9.980;2022-08-19T09:45:20;11.48;;;8.13;;
20462;SDS011;10390;53.566;9.980;2022-08-19T09:47:47;12.95;;;9.02;;
20462;SDS011;10390;53.566;9.980;2022-08-19T09:50:15;11.88;;;8.68;;
20462;SDS011;10390;53.566;9.980;2022-08-19T09:52:43;10.35;;;9.05;;
20462;SDS011;10390;53.566;9.980;2022-08-19T09:55:10;11.55;;;9.10;;
20462;SDS011;10390;53.566;9.980;2022-08-19T09:57:36;11.75;;;8.80;;
20462;SDS011;10390;53.566;9.980;2022-08-19T10:00:05;10.80;;;8.93;;
20462;SDS011;10390;53.566;9.980;2022-08-19T10:02:34;11.10;;;8.75;;
20462;SDS011;10390;53.566;9.980;2022-08-19T10:05:00;12.57;;;8.90;;
20462;SDS011;10390;53.566;9.980;2022-08-19T10:07:45;13.32;;;9.43;;
20462;SDS011;10390;53.566;9.980;2022-08-19T10:10:12;13.90;;;9.95;;
20462;SDS011;10390;53.566;9.980;2022-08-19T10:12:38;15.40;;;10.43;;
20462;SDS011;10390;53.566;9.980;2022-08-19T10:15:04;14.73;;;9.93;;
20462;SDS011;10390;53.566;9.980;2022-08-19T10:17:31;12.23;;;9.55;;
20462;SDS011;10390;53.566;9.980;2022-08-19T10:20:00;14.45;;;9.77;;
20462;SDS011;10390;53.566;9.980;2022-08-19T10:22:27;13.75;;;9.63;;
20462;SDS011;10390;53.566;9.980;2022-08-19T10:24:54;12.70;;;9.48;;
20462;SDS011;10390;53.566;9.980;2022-08-19T10:27:20;11.57;;;9.00;;
20462;SDS011;10390;53.566;9.980;2022-08-19T10:29:46;17.85;;;9.65;;
20462;SDS011;10390;53.566;9.980;2022-08-19T10:32:13;14.93;;;9.77;;
20462;SDS011;10390;53.566;9.980;2022-08-19T10:34:38;13.60;;;10.07;;
20462;SDS011;10390;53.566;9.980;2022-08-19T10:37:05;12.13;;;10.05;;
20462;SDS011;10390;53.566;9.980;2022-08-19T10:39:32;12.60;;;9.70;;
20462;SDS011;10390;53.566;9.980;2022-08-19T10:41:59;11.85;;;9.82;;
20462;SDS011;10390;53.566;9.980;2022-08-19T10:44:34;12.48;;;10.38;;
20462;SDS011;10390;53.566;9.980;2022-08-19T10:47:01;12.70;;;10.25;;
20462;SDS011;10390;53.566;9.980;2022-08-19T10:49:28;14.68;;;10.65;;
20462;SDS011;10390;53.566;9.980;2022-08-19T10:51:55;13.10;;;9.88;;
20462;SDS011;10390;53.566;9.980;2022-08-19T10:54:40;11.15;;;9.77;;
20462;SDS011;10390;53.566;9.980;2022-08-19T10:57:24;15.85;;;10.90;;
20462;SDS011;10390;53.566;9.980;2022-08-19T10:59:54;14.43;;;10.88;;
20462;SDS011;10390;53.566;9.980;2022-08-19T11:02:20;14.15;;;10.15;;
20462;SDS011;10390;53.566;9.980;2022-08-19T11:04:47;12.85;;;10.18;;
20462;SDS011;10390;53.566;9.980;2022-08-19T11:07:15;13.05;;;9.93;;
20462;SDS011;10390;53.566;9.980;2022-08-19T11:09:41;12.77;;;10.43;;
20462;SDS011;10390;53.566;9.980;2022-08-19T11:12:08;14.32;;;10.57;;
20462;SDS011;10390;53.566;9.980;2022-08-19T11:14:37;12.82;;;10.43;;
20462;SDS011;10390;53.566;9.980;2022-08-19T11:17:03;15.23;;;10.52;;
20462;SDS011;10390;53.566;9.980;2022-08-19T11:19:31;14.43;;;10.10;;
20462;SDS011;10390;53.566;9.980;2022-08-19T11:21:58;12.32;;;9.60;;
20462;SDS011;10390;53.566;9.980;2022-08-19T11:24:26;12.30;;;10.10;;
20462;SDS011;10390;53.566;9.980;2022-08-19T11:26:53;12.70;;;9.98;;
20462;SDS011;10390;53.566;9.980;2022-08-19T11:29:27;13.95;;;10.40;;
20462;SDS011;10390;53.566;9.980;2022-08-19T11:31:54;15.32;;;10.80;;
20462;SDS011;10390;53.566;9.980;2022-08-19T11:34:21;13.85;;;10.40;;
20462;SDS011;10390;53.566;9.980;2022-08-19T11:36:53;13.35;;;10.20;;
20462;SDS011;10390;53.566;9.980;2022-08-19T11:39:23;14.57;;;10.13;;
20462;SDS011;10390;53.566;9.980;2022-08-19T11:41:51;14.45;;;9.93;;
20462;SDS011;10390;53.566;9.980;2022-08-19T11:44:17;13.15;;;9.73;;
20462;SDS011;10390;53.566;9.980;2022-08-19T11:46:43;13.43;;;9.73;;
20462;SDS011;10390;53.566;9.980;2022-08-19T11:49:11;13.10;;;9.98;;
20462;SDS011;10390;53.566;9.980;2022-08-19T11:51:39;15.15;;;9.38;;
20462;SDS011;10390;53.566;9.980;2022-08-19T11:54:08;13.02;;;9.73;;
20462;SDS011;10390;53.566;9.980;2022-08-19T11:56:34;12.23;;;8.75;;
20462;SDS011;10390;53.566;9.980;2022-08-19T11:59:03;13.65;;;9.10;;
20462;SDS011;10390;53.566;9.980;2022-08-19T12:01:28;14.20;;;9.98;;
20462;SDS011;10390;53.566;9.980;2022-08-19T12:04:02;15.93;;;9.38;;
20462;SDS011;10390;53.566;9.980;2022-08-19T12:06:31;14.23;;;9.13;;
20462;SDS011;10390;53.566;9.980;2022-08-19T12:09:00;13.88;;;10.00;;
20462;SDS011;10390;53.566;9.980;2022-08-19T12:11:30;12.25;;;9.27;;
20462;SDS011;10390;53.566;9.980;2022-08-19T12:13:56;12.18;;;9.88;;
20462;SDS011;10390;53.566;9.980;2022-08-19T12:16:24;13.95;;;9.07;;
20462;SDS011;10390;53.566;9.980;2022-08-19T12:18:53;11.43;;;9.07;;
20462;SDS011;10390;53.566;9.980;2022-08-19T12:21:21;14.00;;;9.55;;
20462;SDS011;10390;53.566;9.980;2022-08-19T12:23:53;11.07;;;8.82;;
20462;SDS011;10390;53.566;9.980;2022-08-19T12:26:21;17.80;;;9.40;;
20462;SDS011;10390;53.566;9.980;2022-08-19T12:28:49;13.05;;;9.00;;
20462;SDS011;10390;53.566;9.980;2022-08-19T12:31:15;15.20;;;10.20;;
20462;SDS011;10390;53.566;9.980;2022-08-19T12:33:42;13.50;;;9.73;;
20462;SDS011;10390;53.566;9.980;2022-08-19T12:36:10;17.13;;;9.23;;
20462;SDS011;10390;53.566;9.980;2022-08-19T12:38:38;12.68;;;8.77;;
20462;SDS011;10390;53.566;9.980;2022-08-19T12:41:06;16.55;;;10.30;;
20462;SDS011;10390;53.566;9.980;2022-08-19T12:43:37;13.63;;;10.45;;
20462;SDS011;10390;53.566;9.980;2022-08-19T12:46:04;14.40;;;10.15;;
20462;SDS011;10390;53.566;9.980;2022-08-19T12:48:31;17.65;;;9.95;;
20462;SDS011;10390;53.566;9.980;2022-08-19T12:50:58;13.93;;;10.10;;
20462;SDS011;10390;53.566;9.980;2022-08-19T12:53:27;11.73;;;9.48;;
20462;SDS011;10390;53.566;9.980;2022-08-19T12:56:00;15.55;;;9.35;;
20462;SDS011;10390;53.566;9.980;2022-08-19T12:58:26;11.02;;;9.02;;
20462;SDS011;10390;53.566;9.980;2022-08-19T13:00:52;12.82;;;9.20;;
20462;SDS011;10390;53.566;9.980;2022-08-19T13:03:18;12.23;;;9.85;;
20462;SDS011;10390;53.566;9.980;2022-08-19T13:05:44;17.50;;;9.80;;
20462;SDS011;10390;53.566;9.980;2022-08-19T13:08:10;12.30;;;9.38;;
20462;SDS011;10390;53.566;9.980;2022-08-19T13:10:36;18.15;;;10.90;;
20462;SDS011;10390;53.566;9.980;2022-08-19T13:13:04;12.07;;;9.93;;
20462;SDS011;10390;53.566;9.980;2022-08-19T13:15:35;11.65;;;9.77;;
20462;SDS011;10390;53.566;9.980;2022-08-19T13:18:05;11.45;;;10.20;;
20462;SDS011;10390;53.566;9.980;2022-08-19T13:20:34;13.05;;;10.32;;
20462;SDS011;10390;53.566;9.980;2022-08-19T13:23:01;12.70;;;10.05;;
20462;SDS011;10390;53.566;9.980;2022-08-19T13:25:27;13.10;;;10.02;;
20462;SDS011;10390;53.566;9.980;2022-08-19T13:27:53;10.70;;;9.48;;
20462;SDS011;10390;53.566;9.980;2022-08-19T13:30:20;11.77;;;10.30;;
20462;SDS011;10390;53.566;9.980;2022-08-19T13:33:07;11.82;;;10.15;;
20462;SDS011;10390;53.566;9.980;2022-08-19T13:35:46;12.07;;;9.95;;
20462;SDS011;10390;53.566;9.980;2022-08-19T13:38:22;10.95;;;9.73;;
20462;SDS011;10390;53.566;9.980;2022-08-19T13:40:49;11.93;;;9.90;;
20462;SDS011;10390;53.566;9.980;2022-08-19T13:43:18;10.82;;;9.73;;
20462;SDS011;10390;53.566;9.980;2022-08-19T13:45:47;10.77;;;9.38;;
20462;SDS011;10390;53.566;9.980;2022-08-19T13:48:13;10.75;;;9.18;;
20462;SDS011;10390;53.566;9.980;2022-08-19T13:50:42;10.80;;;9.70;;
20462;SDS011;10390;53.566;9.980;2022-08-19T13:53:10;14.60;;;9.88;;
20462;SDS011;10390;53.566;9.980;2022-08-19T13:55:40;11.23;;;10.02;;
20462;SDS011;10390;53.566;9.980;2022-08-19T13:58:08;12.20;;;10.07;;
20462;SDS011;10390;53.566;9.980;2022-08-19T14:00:36;10.70;;;9.60;;
20462;SDS011;10390;53.566;9.980;2022-08-19T14:03:06;11.18;;;10.05;;
20462;SDS011;10390;53.566;9.980;2022-08-19T14:05:32;11.02;;;9.43;;
20462;SDS011;10390;53.566;9.980;2022-08-19T14:08:00;11.55;;;10.45;;
20462;SDS011;10390;53.566;9.980;2022-08-19T14:10:26;11.45;;;10.32;;
20462;SDS011;10390;53.566;9.980;2022-08-19T14:12:57;11.77;;;10.57;;
20462;SDS011;10390;53.566;9.980;2022-08-19T14:15:26;11.43;;;10.30;;
20462;SDS011;10390;53.566;9.980;2022-08-19T14:17:52;11.82;;;10.63;;
20462;SDS011;10390;53.566;9.980;2022-08-19T14:20:19;12.48;;;10.73;;
20462;SDS011;10390;53.566;9.980;2022-08-19T14:22:46;11.55;;;10.43;;
20462;SDS011;10390;53.566;9.980;2022-08-19T14:25:14;11.82;;;10.60;;
20462;SDS011;10390;53.566;9.980;2022-08-19T14:27:45;11.50;;;10.32;;
20462;SDS011;10390;53.566;9.980;2022-08-19T14:30:13;11.63;;;10.43;;
20462;SDS011;10390;53.566;9.980;2022-08-19T14:32:42;11.32;;;10.23;;
20462;SDS011;10390;53.566;9.980;2022-08-19T14:35:08;13.15;;;10.60;;
20462;SDS011;10390;53.566;9.980;2022-08-19T14:37:35;17.38;;;11.25;;
20462;SDS011;10390;53.566;9.980;2022-08-19T14:40:02;12.48;;;11.15;;
20462;SDS011;10390;53.566;9.980;2022-08-19T14:42:29;11.88;;;10.50;;
20462;SDS011;10390;53.566;9.980;2022-08-19T14:44:59;12.82;;;10.85;;
20462;SDS011;10390;53.566;9.980;2022-08-19T14:47:26;12.07;;;10.68;;